sensor_id;sensor_type;location;lat;lon;timestamp;temperature;humidity
17815;DHT22;9031;50.974;11.330;2023-07-31T00:00:13;17.50;99.90
17815;DHT22;9031;50.974;11.330;2023-07-31T00:02:39;17.60;99.90
17815;DHT22;9031;50.974;11.330;2023-07-31T00:05:04;17.60;99.90
17815;DHT22;9031;50.974;11.330;2023-07-31T00:07:31;17.60;99.90
17815;DHT22;9031;50.974;11.330;2023-07-31T00:09:56;17.60;99.90
17815;DHT22;9031;50.974;11.330;2023-07-31T00:12:22;17.60;99.90
17815;DHT22;9031;50.974;11.330;2023-07-31T00:14:48;17.60;99.90
17815;DHT22;9031;50.974;11.330;2023-07-31T00:17:14;17.60;99.90
17815;DHT22;9031;50.974;11.330;2023-07-31T00:19:39;17.50;99.90
17815;DHT22;9031;50.974;11.330;2023-07-31T00:22:05;17.60;99.90
17815;DHT22;9031;50.974;11.330;2023-07-31T00:24:30;17.60;99.90
17815;DHT22;9031;50.974;11.330;2023-07-31T00:26:56;17.60;99.90
17815;DHT22;9031;50.974;11.330;2023-07-31T00:29:21;17.60;99.90
17815;DHT22;9031;50.974;11.330;2023-07-31T00:31:47;17.60;99.90
17815;DHT22;9031;50.974;11.330;2023-07-31T00:34:12;17.60;99.90
17815;DHT22;9031;50.974;11.330;2023-07-31T00:36:37;17.70;99.90
17815;DHT22;9031;50.974;11.330;2023-07-31T00:39:04;17.70;99.90
17815;DHT22;9031;50.974;11.330;2023-07-31T00:41:30;17.70;99.90
17815;DHT22;9031;50.974;11.330;2023-07-31T00:43:55;17.70;99.90
17815;DHT22;9031;50.974;11.330;2023-07-31T00:46:21;17.70;99.90
17815;DHT22;9031;50.974;11.330;2023-07-31T00:48:46;17.70;99.90
17815;DHT22;9031;50.974;11.330;2023-07-31T00:51:12;17.50;99.90
17815;DHT22;9031;50.974;11.330;2023-07-31T00:53:38;17.40;99.90
17815;DHT22;9031;50.974;11.330;2023-07-31T00:56:05;17.20;99.90
17815;DHT22;9031;50.974;11.330;2023-07-31T00:58:31;17.20;99.90
17815;DHT22;9031;50.974;11.330;2023-07-31T01:00:57;17.10;99.90
17815;DHT22;9031;50.974;11.330;2023-07-31T01:03:22;17.00;99.90
17815;DHT22;9031;50.974;11.330;2023-07-31T01:08:59;16.90;99.90
17815;DHT22;9031;50.974;11.330;2023-07-31T01:11:35;17.00;99.90
17815;DHT22;9031;50.974;11.330;2023-07-31T01:14:04;16.90;99.90
17815;DHT22;9031;50.974;11.330;2023-07-31T01:16:30;17.00;99.90
17815;DHT22;9031;50.974;11.330;2023-07-31T01:18:55;17.00;99.90
17815;DHT22;9031;50.974;11.330;2023-07-31T01:24:23;17.00;99.90
17815;DHT22;9031;50.974;11.330;2023-07-31T01:26:57;17.00;99.90
17815;DHT22;9031;50.974;11.330;2023-07-31T01:30:14;17.00;99.90
17815;DHT22;9031;50.974;11.330;2023-07-31T01:32:19;17.10;99.90
17815;DHT22;9031;50.974;11.330;2023-07-31T01:34:45;17.10;99.90
17815;DHT22;9031;50.974;11.330;2023-07-31T01:37:11;17.10;99.90
17815;DHT22;9031;50.974;11.330;2023-07-31T01:39:37;17.00;99.90
17815;DHT22;9031;50.974;11.330;2023-07-31T01:42:02;17.00;99.90
17815;DHT22;9031;50.974;11.330;2023-07-31T01:44:28;17.00;99.90
17815;DHT22;9031;50.974;11.330;2023-07-31T01:46:54;17.10;99.90
17815;DHT22;9031;50.974;11.330;2023-07-31T01:49:19;17.00;99.90
17815;DHT22;9031;50.974;11.330;2023-07-31T01:51:45;17.00;99.90
17815;DHT22;9031;50.974;11.330;2023-07-31T01:54:10;16.90;99.90
17815;DHT22;9031;50.974;11.330;2023-07-31T01:56:36;16.90;99.90
17815;DHT22;9031;50.974;11.330;2023-07-31T01:59:02;16.90;99.90
17815;DHT22;9031;50.974;11.330;2023-07-31T02:01:27;16.90;99.90
17815;DHT22;9031;50.974;11.330;2023-07-31T02:03:53;16.90;99.90
17815;DHT22;9031;50.974;11.330;2023-07-31T02:06:19;17.00;99.90
17815;DHT22;9031;50.974;11.330;2023-07-31T02:08:44;17.00;99.90
17815;DHT22;9031;50.974;11.330;2023-07-31T02:11:10;17.00;99.90
17815;DHT22;9031;50.974;11.330;2023-07-31T02:13:35;16.90;99.90
17815;DHT22;9031;50.974;11.330;2023-07-31T02:16:01;16.80;99.90
17815;DHT22;9031;50.974;11.330;2023-07-31T02:18:26;16.80;99.90
17815;DHT22;9031;50.974;11.330;2023-07-31T02:20:52;16.80;99.90
17815;DHT22;9031;50.974;11.330;2023-07-31T02:23:18;16.80;99.90
17815;DHT22;9031;50.974;11.330;2023-07-31T02:25:45;16.70;99.90
17815;DHT22;9031;50.974;11.330;2023-07-31T02:28:11;16.60;99.90
17815;DHT22;9031;50.974;11.330;2023-07-31T02:30:36;16.50;99.90
17815;DHT22;9031;50.974;11.330;2023-07-31T02:33:02;16.40;99.90
17815;DHT22;9031;50.974;11.330;2023-07-31T02:35:28;16.30;99.90
17815;DHT22;9031;50.974;11.330;2023-07-31T02:37:53;16.10;99.90
17815;DHT22;9031;50.974;11.330;2023-07-31T02:40:19;16.00;99.90
17815;DHT22;9031;50.974;11.330;2023-07-31T02:42:44;16.00;99.90
17815;DHT22;9031;50.974;11.330;2023-07-31T02:45:10;15.90;99.90
17815;DHT22;9031;50.974;11.330;2023-07-31T02:47:35;15.80;99.90
17815;DHT22;9031;50.974;11.330;2023-07-31T02:50:05;15.70;99.90
17815;DHT22;9031;50.974;11.330;2023-07-31T02:52:30;15.60;99.90
17815;DHT22;9031;50.974;11.330;2023-07-31T02:54:56;15.50;99.90
17815;DHT22;9031;50.974;11.330;2023-07-31T02:57:22;15.40;99.90
17815;DHT22;9031;50.974;11.330;2023-07-31T02:59:47;15.40;99.90
17815;DHT22;9031;50.974;11.330;2023-07-31T03:02:13;15.30;99.90
17815;DHT22;9031;50.974;11.330;2023-07-31T03:04:39;15.30;99.90
17815;DHT22;9031;50.974;11.330;2023-07-31T03:07:05;15.20;99.90
17815;DHT22;9031;50.974;11.330;2023-07-31T03:09:30;15.20;99.90
17815;DHT22;9031;50.974;11.330;2023-07-31T03:11:56;15.20;99.90
17815;DHT22;9031;50.974;11.330;2023-07-31T03:14:21;15.20;99.90
17815;DHT22;9031;50.974;11.330;2023-07-31T03:16:47;15.10;99.90
17815;DHT22;9031;50.974;11.330;2023-07-31T03:19:13;15.10;99.90
17815;DHT22;9031;50.974;11.330;2023-07-31T03:21:38;15.00;99.90
17815;DHT22;9031;50.974;11.330;2023-07-31T03:24:04;15.10;99.90
17815;DHT22;9031;50.974;11.330;2023-07-31T03:26:31;15.10;99.90
17815;DHT22;9031;50.974;11.330;2023-07-31T03:28:57;15.10;99.90
17815;DHT22;9031;50.974;11.330;2023-07-31T03:31:22;15.00;99.90
17815;DHT22;9031;50.974;11.330;2023-07-31T03:33:48;15.00;99.90
17815;DHT22;9031;50.974;11.330;2023-07-31T03:36:13;15.00;99.90
17815;DHT22;9031;50.974;11.330;2023-07-31T03:38:39;15.00;99.90
17815;DHT22;9031;50.974;11.330;2023-07-31T03:41:04;15.00;99.90
17815;DHT22;9031;50.974;11.330;2023-07-31T03:43:31;15.00;99.90
17815;DHT22;9031;50.974;11.330;2023-07-31T03:45:59;15.00;99.90
17815;DHT22;9031;50.974;11.330;2023-07-31T03:48:25;15.00;99.90
17815;DHT22;9031;50.974;11.330;2023-07-31T03:50:50;14.80;99.90
17815;DHT22;9031;50.974;11.330;2023-07-31T03:53:16;14.80;99.90
17815;DHT22;9031;50.974;11.330;2023-07-31T03:55:41;14.90;99.90
17815;DHT22;9031;50.974;11.330;2023-07-31T03:58:07;14.80;99.90
17815;DHT22;9031;50.974;11.330;2023-07-31T04:00:32;14.90;99.90
17815;DHT22;9031;50.974;11.330;2023-07-31T04:02:58;14.90;99.90
17815;DHT22;9031;50.974;11.330;2023-07-31T04:05:23;14.90;99.90
17815;DHT22;9031;50.974;11.330;2023-07-31T04:07:49;15.00;99.90
17815;DHT22;9031;50.974;11.330;2023-07-31T04:10:14;15.00;99.90
17815;DHT22;9031;50.974;11.330;2023-07-31T04:12:40;15.00;99.90
17815;DHT22;9031;50.974;11.330;2023-07-31T04:15:06;15.00;99.90
17815;DHT22;9031;50.974;11.330;2023-07-31T04:17:31;15.10;99.90
17815;DHT22;9031;50.974;11.330;2023-07-31T04:19:57;15.20;99.90
17815;DHT22;9031;50.974;11.330;2023-07-31T04:22:22;15.20;99.90
17815;DHT22;9031;50.974;11.330;2023-07-31T04:24:48;15.20;99.90
17815;DHT22;9031;50.974;11.330;2023-07-31T04:27:13;15.20;99.90
17815;DHT22;9031;50.974;11.330;2023-07-31T04:29:39;15.20;99.90
17815;DHT22;9031;50.974;11.330;2023-07-31T04:32:08;15.20;99.90
17815;DHT22;9031;50.974;11.330;2023-07-31T04:34:33;15.20;99.90
17815;DHT22;9031;50.974;11.330;2023-07-31T04:36:59;15.20;99.90
17815;DHT22;9031;50.974;11.330;2023-07-31T04:39:24;15.20;99.90
17815;DHT22;9031;50.974;11.330;2023-07-31T04:41:50;15.20;99.90
17815;DHT22;9031;50.974;11.330;2023-07-31T04:44:15;15.20;99.90
17815;DHT22;9031;50.974;11.330;2023-07-31T04:46:41;15.20;99.90
17815;DHT22;9031;50.974;11.330;2023-07-31T04:49:06;15.30;99.90
17815;DHT22;9031;50.974;11.330;2023-07-31T04:51:32;15.30;99.90
17815;DHT22;9031;50.974;11.330;2023-07-31T04:53:57;15.40;99.90
17815;DHT22;9031;50.974;11.330;2023-07-31T04:56:23;15.50;99.90
17815;DHT22;9031;50.974;11.330;2023-07-31T04:58:48;15.50;99.90
17815;DHT22;9031;50.974;11.330;2023-07-31T05:01:14;15.50;99.90
17815;DHT22;9031;50.974;11.330;2023-07-31T05:03:39;15.60;99.90
17815;DHT22;9031;50.974;11.330;2023-07-31T05:06:05;15.60;99.90
17815;DHT22;9031;50.974;11.330;2023-07-31T05:08:30;15.70;99.90
17815;DHT22;9031;50.974;11.330;2023-07-31T05:10:56;15.70;99.90
17815;DHT22;9031;50.974;11.330;2023-07-31T05:13:21;15.80;99.90
17815;DHT22;9031;50.974;11.330;2023-07-31T05:15:47;15.90;99.90
17815;DHT22;9031;50.974;11.330;2023-07-31T05:18:14;16.00;99.90
17815;DHT22;9031;50.974;11.330;2023-07-31T05:20:40;16.10;99.90
17815;DHT22;9031;50.974;11.330;2023-07-31T05:23:06;16.10;99.90
17815;DHT22;9031;50.974;11.330;2023-07-31T05:25:31;16.20;99.90
17815;DHT22;9031;50.974;11.330;2023-07-31T05:27:57;16.20;99.90
17815;DHT22;9031;50.974;11.330;2023-07-31T05:30:22;16.30;99.90
17815;DHT22;9031;50.974;11.330;2023-07-31T05:32:48;16.30;99.90
17815;DHT22;9031;50.974;11.330;2023-07-31T05:35:13;16.30;99.90
17815;DHT22;9031;50.974;11.330;2023-07-31T05:37:39;16.30;99.90
17815;DHT22;9031;50.974;11.330;2023-07-31T05:40:05;16.30;99.90
17815;DHT22;9031;50.974;11.330;2023-07-31T05:42:30;16.30;99.90
17815;DHT22;9031;50.974;11.330;2023-07-31T05:44:56;16.40;99.90
17815;DHT22;9031;50.974;11.330;2023-07-31T05:47:21;16.40;99.90
17815;DHT22;9031;50.974;11.330;2023-07-31T05:49:48;16.50;99.90
17815;DHT22;9031;50.974;11.330;2023-07-31T05:52:14;16.60;99.90
17815;DHT22;9031;50.974;11.330;2023-07-31T05:54:41;16.70;99.90
17815;DHT22;9031;50.974;11.330;2023-07-31T05:57:07;16.70;99.90
17815;DHT22;9031;50.974;11.330;2023-07-31T05:59:32;16.70;99.90
17815;DHT22;9031;50.974;11.330;2023-07-31T06:01:58;16.80;99.90
17815;DHT22;9031;50.974;11.330;2023-07-31T06:04:24;16.90;99.90
17815;DHT22;9031;50.974;11.330;2023-07-31T06:06:51;16.90;99.90
17815;DHT22;9031;50.974;11.330;2023-07-31T06:09:16;17.00;99.90
17815;DHT22;9031;50.974;11.330;2023-07-31T06:11:42;17.00;99.90
17815;DHT22;9031;50.974;11.330;2023-07-31T06:14:07;17.10;99.90
17815;DHT22;9031;50.974;11.330;2023-07-31T06:16:32;17.20;99.90
17815;DHT22;9031;50.974;11.330;2023-07-31T06:18:58;17.30;99.90
17815;DHT22;9031;50.974;11.330;2023-07-31T06:21:23;17.30;99.90
17815;DHT22;9031;50.974;11.330;2023-07-31T06:23:49;17.20;99.90
17815;DHT22;9031;50.974;11.330;2023-07-31T06:26:14;17.20;99.90
17815;DHT22;9031;50.974;11.330;2023-07-31T06:28:40;17.20;99.90
17815;DHT22;9031;50.974;11.330;2023-07-31T06:31:05;17.20;99.90
17815;DHT22;9031;50.974;11.330;2023-07-31T06:33:31;17.30;99.90
17815;DHT22;9031;50.974;11.330;2023-07-31T06:35:56;17.20;99.90
17815;DHT22;9031;50.974;11.330;2023-07-31T06:38:25;17.20;99.90
17815;DHT22;9031;50.974;11.330;2023-07-31T06:40:51;17.30;99.90
17815;DHT22;9031;50.974;11.330;2023-07-31T06:43:16;17.40;99.90
17815;DHT22;9031;50.974;11.330;2023-07-31T06:45:42;17.40;99.90
17815;DHT22;9031;50.974;11.330;2023-07-31T06:48:07;17.50;99.90
17815;DHT22;9031;50.974;11.330;2023-07-31T06:50:33;17.60;99.90
17815;DHT22;9031;50.974;11.330;2023-07-31T06:52:59;17.60;99.90
17815;DHT22;9031;50.974;11.330;2023-07-31T06:55:25;17.60;99.90
17815;DHT22;9031;50.974;11.330;2023-07-31T06:57:52;17.60;99.90
17815;DHT22;9031;50.974;11.330;2023-07-31T07:00:19;17.60;99.90
17815;DHT22;9031;50.974;11.330;2023-07-31T07:02:45;17.50;99.90
17815;DHT22;9031;50.974;11.330;2023-07-31T07:05:13;17.60;99.90
17815;DHT22;9031;50.974;11.330;2023-07-31T07:07:38;17.70;99.90
17815;DHT22;9031;50.974;11.330;2023-07-31T07:10:04;17.60;99.90
17815;DHT22;9031;50.974;11.330;2023-07-31T07:12:31;17.60;99.90
17815;DHT22;9031;50.974;11.330;2023-07-31T07:14:57;17.70;99.90
17815;DHT22;9031;50.974;11.330;2023-07-31T07:17:23;17.70;99.90
17815;DHT22;9031;50.974;11.330;2023-07-31T07:19:49;17.90;99.90
17815;DHT22;9031;50.974;11.330;2023-07-31T07:22:14;17.90;99.90
17815;DHT22;9031;50.974;11.330;2023-07-31T07:24:40;18.00;99.90
17815;DHT22;9031;50.974;11.330;2023-07-31T07:27:06;18.00;99.90
17815;DHT22;9031;50.974;11.330;2023-07-31T07:29:31;18.10;99.90
17815;DHT22;9031;50.974;11.330;2023-07-31T07:31:57;18.20;99.90
17815;DHT22;9031;50.974;11.330;2023-07-31T07:34:25;18.20;99.90
17815;DHT22;9031;50.974;11.330;2023-07-31T07:36:50;18.10;99.90
17815;DHT22;9031;50.974;11.330;2023-07-31T07:39:16;18.10;99.90
17815;DHT22;9031;50.974;11.330;2023-07-31T07:41:41;17.90;99.90
17815;DHT22;9031;50.974;11.330;2023-07-31T07:44:07;18.00;99.90
17815;DHT22;9031;50.974;11.330;2023-07-31T07:46:33;18.10;99.90
17815;DHT22;9031;50.974;11.330;2023-07-31T07:48:59;18.20;99.90
17815;DHT22;9031;50.974;11.330;2023-07-31T07:51:24;18.30;99.90
17815;DHT22;9031;50.974;11.330;2023-07-31T07:53:50;18.10;99.90
17815;DHT22;9031;50.974;11.330;2023-07-31T07:56:15;18.00;99.90
17815;DHT22;9031;50.974;11.330;2023-07-31T07:58:41;18.00;99.90
17815;DHT22;9031;50.974;11.330;2023-07-31T08:01:06;18.00;99.90
17815;DHT22;9031;50.974;11.330;2023-07-31T08:03:31;18.20;99.90
17815;DHT22;9031;50.974;11.330;2023-07-31T08:06:01;18.30;99.90
17815;DHT22;9031;50.974;11.330;2023-07-31T08:08:28;18.30;99.90
17815;DHT22;9031;50.974;11.330;2023-07-31T08:10:54;18.30;99.90
17815;DHT22;9031;50.974;11.330;2023-07-31T08:13:19;18.50;99.90
17815;DHT22;9031;50.974;11.330;2023-07-31T08:15:45;18.70;99.90
17815;DHT22;9031;50.974;11.330;2023-07-31T08:18:12;18.90;99.90
17815;DHT22;9031;50.974;11.330;2023-07-31T08:20:37;19.00;99.90
17815;DHT22;9031;50.974;11.330;2023-07-31T08:23:03;19.10;99.90
17815;DHT22;9031;50.974;11.330;2023-07-31T08:25:29;19.00;99.90
17815;DHT22;9031;50.974;11.330;2023-07-31T08:27:55;18.90;99.90
17815;DHT22;9031;50.974;11.330;2023-07-31T08:30:21;19.10;99.90
17815;DHT22;9031;50.974;11.330;2023-07-31T08:32:47;19.20;99.90
17815;DHT22;9031;50.974;11.330;2023-07-31T08:35:12;19.30;99.90
17815;DHT22;9031;50.974;11.330;2023-07-31T08:37:38;19.30;99.90
17815;DHT22;9031;50.974;11.330;2023-07-31T08:40:05;19.20;99.90
17815;DHT22;9031;50.974;11.330;2023-07-31T08:42:31;19.00;99.90
17815;DHT22;9031;50.974;11.330;2023-07-31T08:44:57;19.00;99.90
17815;DHT22;9031;50.974;11.330;2023-07-31T08:47:25;18.90;99.90
17815;DHT22;9031;50.974;11.330;2023-07-31T08:49:51;18.70;99.90
17815;DHT22;9031;50.974;11.330;2023-07-31T08:52:18;18.30;99.90
17815;DHT22;9031;50.974;11.330;2023-07-31T08:54:43;17.90;99.90
17815;DHT22;9031;50.974;11.330;2023-07-31T08:57:09;17.70;99.90
17815;DHT22;9031;50.974;11.330;2023-07-31T08:59:36;17.70;99.90
17815;DHT22;9031;50.974;11.330;2023-07-31T09:02:05;17.70;99.90
17815;DHT22;9031;50.974;11.330;2023-07-31T09:04:32;17.80;99.90
17815;DHT22;9031;50.974;11.330;2023-07-31T09:07:00;17.90;99.90
17815;DHT22;9031;50.974;11.330;2023-07-31T09:09:26;17.90;99.90
17815;DHT22;9031;50.974;11.330;2023-07-31T09:11:52;17.90;99.90
17815;DHT22;9031;50.974;11.330;2023-07-31T09:14:19;18.10;99.90
17815;DHT22;9031;50.974;11.330;2023-07-31T09:16:52;18.30;99.90
17815;DHT22;9031;50.974;11.330;2023-07-31T09:19:28;18.50;99.90
17815;DHT22;9031;50.974;11.330;2023-07-31T09:21:54;18.70;99.90
17815;DHT22;9031;50.974;11.330;2023-07-31T09:24:30;18.90;99.90
17815;DHT22;9031;50.974;11.330;2023-07-31T09:26:57;18.80;99.90
17815;DHT22;9031;50.974;11.330;2023-07-31T09:29:24;19.00;99.90
17815;DHT22;9031;50.974;11.330;2023-07-31T09:31:52;19.70;99.90
17815;DHT22;9031;50.974;11.330;2023-07-31T09:34:18;20.00;99.90
17815;DHT22;9031;50.974;11.330;2023-07-31T09:36:49;19.90;99.90
17815;DHT22;9031;50.974;11.330;2023-07-31T09:39:16;20.00;99.90
17815;DHT22;9031;50.974;11.330;2023-07-31T09:41:47;19.80;99.90
17815;DHT22;9031;50.974;11.330;2023-07-31T09:44:13;20.00;99.90
17815;DHT22;9031;50.974;11.330;2023-07-31T09:46:38;20.50;99.90
17815;DHT22;9031;50.974;11.330;2023-07-31T09:49:09;20.30;99.90
17815;DHT22;9031;50.974;11.330;2023-07-31T09:51:39;20.30;99.90
17815;DHT22;9031;50.974;11.330;2023-07-31T09:54:15;19.90;99.90
17815;DHT22;9031;50.974;11.330;2023-07-31T09:56:43;20.00;99.90
17815;DHT22;9031;50.974;11.330;2023-07-31T09:59:12;19.90;99.90
17815;DHT22;9031;50.974;11.330;2023-07-31T10:01:40;20.00;99.90
17815;DHT22;9031;50.974;11.330;2023-07-31T10:04:08;20.00;99.90
17815;DHT22;9031;50.974;11.330;2023-07-31T10:06:34;20.00;99.90
17815;DHT22;9031;50.974;11.330;2023-07-31T10:09:01;20.30;99.90
17815;DHT22;9031;50.974;11.330;2023-07-31T10:11:27;20.30;99.90
17815;DHT22;9031;50.974;11.330;2023-07-31T10:13:55;20.40;99.90
17815;DHT22;9031;50.974;11.330;2023-07-31T10:16:21;20.40;99.90
17815;DHT22;9031;50.974;11.330;2023-07-31T10:18:47;20.60;99.90
17815;DHT22;9031;50.974;11.330;2023-07-31T10:21:14;20.50;99.90
17815;DHT22;9031;50.974;11.330;2023-07-31T10:23:41;20.60;99.90
17815;DHT22;9031;50.974;11.330;2023-07-31T10:26:08;20.30;99.90
17815;DHT22;9031;50.974;11.330;2023-07-31T10:28:36;20.40;99.90
17815;DHT22;9031;50.974;11.330;2023-07-31T10:31:03;20.50;99.90
17815;DHT22;9031;50.974;11.330;2023-07-31T10:33:28;20.70;99.90
17815;DHT22;9031;50.974;11.330;2023-07-31T10:36:14;20.50;99.90
17815;DHT22;9031;50.974;11.330;2023-07-31T10:38:42;20.60;99.90
17815;DHT22;9031;50.974;11.330;2023-07-31T10:41:08;21.20;99.90
17815;DHT22;9031;50.974;11.330;2023-07-31T10:43:34;21.50;99.90
17815;DHT22;9031;50.974;11.330;2023-07-31T10:46:06;21.70;99.90
17815;DHT22;9031;50.974;11.330;2023-07-31T10:48:37;21.60;99.90
17815;DHT22;9031;50.974;11.330;2023-07-31T10:51:07;21.30;99.90
17815;DHT22;9031;50.974;11.330;2023-07-31T10:53:34;21.00;99.90
17815;DHT22;9031;50.974;11.330;2023-07-31T10:56:00;21.00;99.90
17815;DHT22;9031;50.974;11.330;2023-07-31T10:58:26;21.00;99.90
17815;DHT22;9031;50.974;11.330;2023-07-31T11:00:56;20.90;99.90
17815;DHT22;9031;50.974;11.330;2023-07-31T11:03:25;21.00;99.90
17815;DHT22;9031;50.974;11.330;2023-07-31T11:08:28;20.90;99.90
17815;DHT22;9031;50.974;11.330;2023-07-31T11:13:53;20.80;99.90
17815;DHT22;9031;50.974;11.330;2023-07-31T11:16:20;20.70;99.90
17815;DHT22;9031;50.974;11.330;2023-07-31T11:18:47;20.90;99.90
17815;DHT22;9031;50.974;11.330;2023-07-31T11:21:19;20.90;99.90
17815;DHT22;9031;50.974;11.330;2023-07-31T11:23:48;20.90;99.90
17815;DHT22;9031;50.974;11.330;2023-07-31T11:26:14;20.90;99.90
17815;DHT22;9031;50.974;11.330;2023-07-31T11:28:40;21.10;99.90
17815;DHT22;9031;50.974;11.330;2023-07-31T11:31:09;20.90;99.90
17815;DHT22;9031;50.974;11.330;2023-07-31T11:33:35;20.80;99.90
17815;DHT22;9031;50.974;11.330;2023-07-31T11:36:01;20.70;99.90
17815;DHT22;9031;50.974;11.330;2023-07-31T11:38:31;20.80;99.90
17815;DHT22;9031;50.974;11.330;2023-07-31T11:41:02;21.00;99.90
17815;DHT22;9031;50.974;11.330;2023-07-31T11:43:28;21.60;99.90
17815;DHT22;9031;50.974;11.330;2023-07-31T11:45:56;22.60;99.90
17815;DHT22;9031;50.974;11.330;2023-07-31T11:48:33;24.00;99.90
17815;DHT22;9031;50.974;11.330;2023-07-31T11:51:01;24.40;99.90
17815;DHT22;9031;50.974;11.330;2023-07-31T11:55:55;24.80;99.90
17815;DHT22;9031;50.974;11.330;2023-07-31T11:58:23;25.30;99.90
17815;DHT22;9031;50.974;11.330;2023-07-31T12:00:48;24.40;99.90
17815;DHT22;9031;50.974;11.330;2023-07-31T12:03:15;25.20;99.90
17815;DHT22;9031;50.974;11.330;2023-07-31T12:05:40;25.10;99.90
17815;DHT22;9031;50.974;11.330;2023-07-31T12:08:10;24.00;99.90
17815;DHT22;9031;50.974;11.330;2023-07-31T12:10:37;22.70;99.90
17815;DHT22;9031;50.974;11.330;2023-07-31T12:13:11;21.80;99.90
17815;DHT22;9031;50.974;11.330;2023-07-31T12:15:42;21.90;99.90
17815;DHT22;9031;50.974;11.330;2023-07-31T12:18:12;22.00;99.90
17815;DHT22;9031;50.974;11.330;2023-07-31T12:20:48;22.10;99.90
17815;DHT22;9031;50.974;11.330;2023-07-31T12:23:23;22.30;99.90
17815;DHT22;9031;50.974;11.330;2023-07-31T12:28:30;22.50;99.90
17815;DHT22;9031;50.974;11.330;2023-07-31T12:31:00;22.90;99.90
17815;DHT22;9031;50.974;11.330;2023-07-31T12:33:36;22.20;99.90
17815;DHT22;9031;50.974;11.330;2023-07-31T12:36:06;22.40;99.90
17815;DHT22;9031;50.974;11.330;2023-07-31T12:38:31;22.90;99.90
17815;DHT22;9031;50.974;11.330;2023-07-31T12:40:57;23.00;99.90
17815;DHT22;9031;50.974;11.330;2023-07-31T12:43:23;23.10;99.90
17815;DHT22;9031;50.974;11.330;2023-07-31T12:45:49;23.60;99.90
17815;DHT22;9031;50.974;11.330;2023-07-31T12:48:14;23.60;99.90
17815;DHT22;9031;50.974;11.330;2023-07-31T12:50:40;24.50;99.90
17815;DHT22;9031;50.974;11.330;2023-07-31T12:53:06;24.30;99.90
17815;DHT22;9031;50.974;11.330;2023-07-31T12:55:33;24.20;99.90
17815;DHT22;9031;50.974;11.330;2023-07-31T12:58:00;23.90;99.90
17815;DHT22;9031;50.974;11.330;2023-07-31T13:00:26;23.70;99.90
17815;DHT22;9031;50.974;11.330;2023-07-31T13:02:52;24.10;99.90
17815;DHT22;9031;50.974;11.330;2023-07-31T13:05:17;24.00;99.90
17815;DHT22;9031;50.974;11.330;2023-07-31T13:07:45;24.00;99.90
17815;DHT22;9031;50.974;11.330;2023-07-31T13:10:10;24.00;99.90
17815;DHT22;9031;50.974;11.330;2023-07-31T13:12:36;23.70;99.90
17815;DHT22;9031;50.974;11.330;2023-07-31T13:15:01;23.60;99.90
17815;DHT22;9031;50.974;11.330;2023-07-31T13:17:27;22.90;99.90
17815;DHT22;9031;50.974;11.330;2023-07-31T13:19:52;22.80;99.90
17815;DHT22;9031;50.974;11.330;2023-07-31T13:22:18;22.80;99.90
17815;DHT22;9031;50.974;11.330;2023-07-31T13:24:43;22.60;99.90
17815;DHT22;9031;50.974;11.330;2023-07-31T13:27:09;22.10;99.90
17815;DHT22;9031;50.974;11.330;2023-07-31T13:29:34;22.00;99.90
17815;DHT22;9031;50.974;11.330;2023-07-31T13:32:00;21.80;99.90
17815;DHT22;9031;50.974;11.330;2023-07-31T13:34:25;22.20;99.90
17815;DHT22;9031;50.974;11.330;2023-07-31T13:36:51;23.10;99.90
17815;DHT22;9031;50.974;11.330;2023-07-31T13:39:16;24.20;99.90
17815;DHT22;9031;50.974;11.330;2023-07-31T13:41:42;24.40;99.90
17815;DHT22;9031;50.974;11.330;2023-07-31T13:44:07;24.40;99.90
17815;DHT22;9031;50.974;11.330;2023-07-31T13:46:33;23.30;99.90
17815;DHT22;9031;50.974;11.330;2023-07-31T13:48:59;22.80;99.90
17815;DHT22;9031;50.974;11.330;2023-07-31T13:51:25;22.00;99.90
17815;DHT22;9031;50.974;11.330;2023-07-31T13:53:51;21.90;99.90
17815;DHT22;9031;50.974;11.330;2023-07-31T13:56:16;22.00;99.90
17815;DHT22;9031;50.974;11.330;2023-07-31T13:58:42;22.20;99.90
17815;DHT22;9031;50.974;11.330;2023-07-31T14:01:07;22.00;99.90
17815;DHT22;9031;50.974;11.330;2023-07-31T14:03:33;21.90;99.90
17815;DHT22;9031;50.974;11.330;2023-07-31T14:05:58;21.70;99.90
17815;DHT22;9031;50.974;11.330;2023-07-31T14:08:24;21.90;99.90
17815;DHT22;9031;50.974;11.330;2023-07-31T14:10:50;22.00;99.90
17815;DHT22;9031;50.974;11.330;2023-07-31T14:13:15;21.40;99.90
17815;DHT22;9031;50.974;11.330;2023-07-31T14:15:44;21.20;99.90
17815;DHT22;9031;50.974;11.330;2023-07-31T14:18:09;21.20;99.90
17815;DHT22;9031;50.974;11.330;2023-07-31T14:20:35;21.20;99.90
17815;DHT22;9031;50.974;11.330;2023-07-31T14:23:02;21.30;99.90
17815;DHT22;9031;50.974;11.330;2023-07-31T14:25:27;21.30;99.90
17815;DHT22;9031;50.974;11.330;2023-07-31T14:27:53;21.20;99.90
17815;DHT22;9031;50.974;11.330;2023-07-31T14:30:18;21.30;99.90
17815;DHT22;9031;50.974;11.330;2023-07-31T14:32:44;21.40;99.90
17815;DHT22;9031;50.974;11.330;2023-07-31T14:35:09;21.50;99.90
17815;DHT22;9031;50.974;11.330;2023-07-31T14:37:43;21.40;99.90
17815;DHT22;9031;50.974;11.330;2023-07-31T14:40:11;21.60;99.90
17815;DHT22;9031;50.974;11.330;2023-07-31T14:42:37;21.70;99.90
17815;DHT22;9031;50.974;11.330;2023-07-31T14:45:04;21.70;99.90
17815;DHT22;9031;50.974;11.330;2023-07-31T14:47:29;21.50;99.90
17815;DHT22;9031;50.974;11.330;2023-07-31T14:49:56;21.70;99.90
17815;DHT22;9031;50.974;11.330;2023-07-31T14:52:22;21.80;99.90
17815;DHT22;9031;50.974;11.330;2023-07-31T14:54:47;21.80;99.90
17815;DHT22;9031;50.974;11.330;2023-07-31T14:57:13;21.80;99.90
17815;DHT22;9031;50.974;11.330;2023-07-31T14:59:38;21.60;99.90
17815;DHT22;9031;50.974;11.330;2023-07-31T15:02:04;21.70;99.90
17815;DHT22;9031;50.974;11.330;2023-07-31T15:04:29;21.90;99.90
17815;DHT22;9031;50.974;11.330;2023-07-31T15:06:55;21.80;99.90
17815;DHT22;9031;50.974;11.330;2023-07-31T15:09:20;21.60;99.90
17815;DHT22;9031;50.974;11.330;2023-07-31T15:11:46;21.40;99.90
17815;DHT22;9031;50.974;11.330;2023-07-31T15:14:12;21.30;99.90
17815;DHT22;9031;50.974;11.330;2023-07-31T15:16:37;21.50;99.90
17815;DHT22;9031;50.974;11.330;2023-07-31T15:19:03;21.40;99.90
17815;DHT22;9031;50.974;11.330;2023-07-31T15:21:28;21.50;99.90
17815;DHT22;9031;50.974;11.330;2023-07-31T15:23:55;21.30;99.90
17815;DHT22;9031;50.974;11.330;2023-07-31T15:26:20;21.20;99.90
17815;DHT22;9031;50.974;11.330;2023-07-31T15:28:55;21.30;99.90
17815;DHT22;9031;50.974;11.330;2023-07-31T15:31:21;21.30;99.90
17815;DHT22;9031;50.974;11.330;2023-07-31T15:33:48;21.40;99.90
17815;DHT22;9031;50.974;11.330;2023-07-31T15:36:13;21.30;99.90
17815;DHT22;9031;50.974;11.330;2023-07-31T15:38:39;21.30;99.90
17815;DHT22;9031;50.974;11.330;2023-07-31T15:41:05;21.40;99.90